sensor_id;sensor_type;location;lat;lon;timestamp;temperature;humidity
30473;DHT22;17263;48.160;11.452;2023-11-21T00:00:19;7.40;99.90
30473;DHT22;17263;48.160;11.452;2023-11-21T00:02:45;7.50;99.90
30473;DHT22;17263;48.160;11.452;2023-11-21T00:05:12;7.40;99.90
30473;DHT22;17263;48.160;11.452;2023-11-21T00:07:41;7.50;99.90
30473;DHT22;17263;48.160;11.452;2023-11-21T00:10:08;7.50;99.90
30473;DHT22;17263;48.160;11.452;2023-11-21T00:12:36;7.50;99.90
30473;DHT22;17263;48.160;11.452;2023-11-21T00:15:03;7.40;99.90
30473;DHT22;17263;48.160;11.452;2023-11-21T00:17:31;7.50;99.90
30473;DHT22;17263;48.160;11.452;2023-11-21T00:19:57;7.50;99.90
30473;DHT22;17263;48.160;11.452;2023-11-21T00:22:23;7.50;99.90
30473;DHT22;17263;48.160;11.452;2023-11-21T00:24:49;7.50;99.90
30473;DHT22;17263;48.160;11.452;2023-11-21T00:27:15;7.50;99.90
30473;DHT22;17263;48.160;11.452;2023-11-21T00:29:41;7.50;99.90
30473;DHT22;17263;48.160;11.452;2023-11-21T00:32:07;7.40;99.90
30473;DHT22;17263;48.160;11.452;2023-11-21T00:34:33;7.40;99.90
30473;DHT22;17263;48.160;11.452;2023-11-21T00:37:00;7.40;99.90
30473;DHT22;17263;48.160;11.452;2023-11-21T00:39:26;7.40;99.90
30473;DHT22;17263;48.160;11.452;2023-11-21T00:41:52;7.30;99.90
30473;DHT22;17263;48.160;11.452;2023-11-21T00:44:18;7.30;99.90
30473;DHT22;17263;48.160;11.452;2023-11-21T00:46:44;7.30;99.90
30473;DHT22;17263;48.160;11.452;2023-11-21T00:49:10;7.30;99.90
30473;DHT22;17263;48.160;11.452;2023-11-21T00:51:36;7.30;99.90
30473;DHT22;17263;48.160;11.452;2023-11-21T00:54:02;7.30;99.90
30473;DHT22;17263;48.160;11.452;2023-11-21T00:56:28;7.30;99.90
30473;DHT22;17263;48.160;11.452;2023-11-21T00:58:54;7.20;99.90
30473;DHT22;17263;48.160;11.452;2023-11-21T01:01:21;7.20;99.90
30473;DHT22;17263;48.160;11.452;2023-11-21T01:03:50;7.20;99.90
30473;DHT22;17263;48.160;11.452;2023-11-21T01:06:17;7.10;99.90
30473;DHT22;17263;48.160;11.452;2023-11-21T01:08:46;7.10;99.90
30473;DHT22;17263;48.160;11.452;2023-11-21T01:11:13;7.10;99.90
30473;DHT22;17263;48.160;11.452;2023-11-21T01:13:39;7.10;99.90
30473;DHT22;17263;48.160;11.452;2023-11-21T01:16:06;7.00;99.90
30473;DHT22;17263;48.160;11.452;2023-11-21T01:18:32;7.00;99.90
30473;DHT22;17263;48.160;11.452;2023-11-21T01:20:59;6.90;99.90
30473;DHT22;17263;48.160;11.452;2023-11-21T01:23:27;7.00;99.90
30473;DHT22;17263;48.160;11.452;2023-11-21T01:25:56;6.90;99.90
30473;DHT22;17263;48.160;11.452;2023-11-21T01:28:22;6.90;99.90
30473;DHT22;17263;48.160;11.452;2023-11-21T01:30:49;6.80;99.90
30473;DHT22;17263;48.160;11.452;2023-11-21T01:33:15;6.80;99.90
30473;DHT22;17263;48.160;11.452;2023-11-21T01:35:42;6.80;99.90
30473;DHT22;17263;48.160;11.452;2023-11-21T01:38:08;6.80;99.90
30473;DHT22;17263;48.160;11.452;2023-11-21T01:40:35;6.80;99.90
30473;DHT22;17263;48.160;11.452;2023-11-21T01:43:01;6.80;99.90
30473;DHT22;17263;48.160;11.452;2023-11-21T01:45:30;6.80;99.90
30473;DHT22;17263;48.160;11.452;2023-11-21T01:48:00;6.80;99.90
30473;DHT22;17263;48.160;11.452;2023-11-21T01:50:27;6.80;99.90
30473;DHT22;17263;48.160;11.452;2023-11-21T01:52:53;6.80;99.90
30473;DHT22;17263;48.160;11.452;2023-11-21T01:55:20;6.80;99.90
30473;DHT22;17263;48.160;11.452;2023-11-21T01:57:46;6.80;99.90
30473;DHT22;17263;48.160;11.452;2023-11-21T02:00:13;6.80;99.90
30473;DHT22;17263;48.160;11.452;2023-11-21T02:02:46;6.90;99.90
30473;DHT22;17263;48.160;11.452;2023-11-21T02:05:14;6.90;99.90
30473;DHT22;17263;48.160;11.452;2023-11-21T02:07:44;6.80;99.90
30473;DHT22;17263;48.160;11.452;2023-11-21T02:10:11;6.80;99.90
30473;DHT22;17263;48.160;11.452;2023-11-21T02:12:45;6.80;99.90
30473;DHT22;17263;48.160;11.452;2023-11-21T02:15:13;6.90;99.90
30473;DHT22;17263;48.160;11.452;2023-11-21T02:17:52;6.90;99.90
30473;DHT22;17263;48.160;11.452;2023-11-21T02:20:22;6.90;99.90
30473;DHT22;17263;48.160;11.452;2023-11-21T02:22:50;6.90;99.90
30473;DHT22;17263;48.160;11.452;2023-11-21T02:25:27;7.00;99.90
30473;DHT22;17263;48.160;11.452;2023-11-21T02:27:57;7.00;99.90
30473;DHT22;17263;48.160;11.452;2023-11-21T02:30:24;7.10;99.90
30473;DHT22;17263;48.160;11.452;2023-11-21T02:32:58;7.10;99.90
30473;DHT22;17263;48.160;11.452;2023-11-21T02:35:24;7.10;99.90
30473;DHT22;17263;48.160;11.452;2023-11-21T02:37:52;7.10;99.90
30473;DHT22;17263;48.160;11.452;2023-11-21T02:40:18;7.10;99.90
30473;DHT22;17263;48.160;11.452;2023-11-21T02:42:47;7.10;99.90
30473;DHT22;17263;48.160;11.452;2023-11-21T02:45:14;7.10;99.90
30473;DHT22;17263;48.160;11.452;2023-11-21T02:47:43;7.00;99.90
30473;DHT22;17263;48.160;11.452;2023-11-21T02:50:09;7.10;99.90
30473;DHT22;17263;48.160;11.452;2023-11-21T02:52:35;7.10;99.90
30473;DHT22;17263;48.160;11.452;2023-11-21T02:55:02;7.10;99.90
30473;DHT22;17263;48.160;11.452;2023-11-21T02:57:29;7.10;99.90
30473;DHT22;17263;48.160;11.452;2023-11-21T02:59:55;7.10;99.90
30473;DHT22;17263;48.160;11.452;2023-11-21T03:02:21;7.00;99.90
30473;DHT22;17263;48.160;11.452;2023-11-21T03:04:48;7.10;99.90
30473;DHT22;17263;48.160;11.452;2023-11-21T03:07:15;7.10;99.90
30473;DHT22;17263;48.160;11.452;2023-11-21T03:09:41;7.00;99.90
30473;DHT22;17263;48.160;11.452;2023-11-21T03:12:09;7.00;99.90
30473;DHT22;17263;48.160;11.452;2023-11-21T03:14:35;7.00;99.90
30473;DHT22;17263;48.160;11.452;2023-11-21T03:17:01;7.00;99.90
30473;DHT22;17263;48.160;11.452;2023-11-21T03:19:28;7.00;99.90
30473;DHT22;17263;48.160;11.452;2023-11-21T03:21:54;7.00;99.90
30473;DHT22;17263;48.160;11.452;2023-11-21T03:24:20;7.00;99.90
30473;DHT22;17263;48.160;11.452;2023-11-21T03:26:48;7.00;99.90
30473;DHT22;17263;48.160;11.452;2023-11-21T03:29:14;7.00;99.90
30473;DHT22;17263;48.160;11.452;2023-11-21T03:31:41;7.10;99.90
30473;DHT22;17263;48.160;11.452;2023-11-21T03:34:14;7.10;99.90
30473;DHT22;17263;48.160;11.452;2023-11-21T03:36:40;7.10;99.90
30473;DHT22;17263;48.160;11.452;2023-11-21T03:39:07;7.10;99.90
30473;DHT22;17263;48.160;11.452;2023-11-21T03:41:33;7.10;99.90
30473;DHT22;17263;48.160;11.452;2023-11-21T03:43:59;7.10;99.90
30473;DHT22;17263;48.160;11.452;2023-11-21T03:46:26;7.10;99.90
30473;DHT22;17263;48.160;11.452;2023-11-21T03:48:52;7.20;99.90
30473;DHT22;17263;48.160;11.452;2023-11-21T03:51:18;7.10;99.90
30473;DHT22;17263;48.160;11.452;2023-11-21T03:53:44;7.10;99.90
30473;DHT22;17263;48.160;11.452;2023-11-21T03:56:10;7.10;99.90
30473;DHT22;17263;48.160;11.452;2023-11-21T03:58:36;7.00;99.90
30473;DHT22;17263;48.160;11.452;2023-11-21T04:01:02;7.00;99.90
30473;DHT22;17263;48.160;11.452;2023-11-21T04:03:28;7.00;99.90
30473;DHT22;17263;48.160;11.452;2023-11-21T04:05:54;6.90;99.90
30473;DHT22;17263;48.160;11.452;2023-11-21T04:08:20;6.90;99.90
30473;DHT22;17263;48.160;11.452;2023-11-21T04:10:46;6.90;99.90
30473;DHT22;17263;48.160;11.452;2023-11-21T04:13:12;6.90;99.90
30473;DHT22;17263;48.160;11.452;2023-11-21T04:15:38;6.80;99.90
30473;DHT22;17263;48.160;11.452;2023-11-21T04:18:05;6.80;99.90
30473;DHT22;17263;48.160;11.452;2023-11-21T04:20:31;6.90;99.90
30473;DHT22;17263;48.160;11.452;2023-11-21T04:22:57;7.00;99.90
30473;DHT22;17263;48.160;11.452;2023-11-21T04:25:23;7.10;99.90
30473;DHT22;17263;48.160;11.452;2023-11-21T04:27:49;7.10;99.90
30473;DHT22;17263;48.160;11.452;2023-11-21T04:30:15;7.20;99.90
30473;DHT22;17263;48.160;11.452;2023-11-21T04:32:41;7.20;99.90
30473;DHT22;17263;48.160;11.452;2023-11-21T04:35:08;7.20;99.90
30473;DHT22;17263;48.160;11.452;2023-11-21T04:37:37;7.20;99.90
30473;DHT22;17263;48.160;11.452;2023-11-21T04:40:03;7.20;99.90
30473;DHT22;17263;48.160;11.452;2023-11-21T04:42:36;7.30;99.90
30473;DHT22;17263;48.160;11.452;2023-11-21T04:45:06;7.20;99.90
30473;DHT22;17263;48.160;11.452;2023-11-21T04:47:37;7.20;99.90
30473;DHT22;17263;48.160;11.452;2023-11-21T04:50:04;7.20;99.90
30473;DHT22;17263;48.160;11.452;2023-11-21T04:52:31;7.20;99.90
30473;DHT22;17263;48.160;11.452;2023-11-21T04:54:59;7.20;99.90
30473;DHT22;17263;48.160;11.452;2023-11-21T04:57:26;7.10;99.90
30473;DHT22;17263;48.160;11.452;2023-11-21T04:59:54;7.10;99.90
30473;DHT22;17263;48.160;11.452;2023-11-21T05:02:20;7.20;99.90
30473;DHT22;17263;48.160;11.452;2023-11-21T05:04:47;7.20;99.90
30473;DHT22;17263;48.160;11.452;2023-11-21T05:07:14;7.20;99.90
30473;DHT22;17263;48.160;11.452;2023-11-21T05:09:43;7.20;99.90
30473;DHT22;17263;48.160;11.452;2023-11-21T05:12:12;7.10;99.90
30473;DHT22;17263;48.160;11.452;2023-11-21T05:14:40;7.10;99.90
30473;DHT22;17263;48.160;11.452;2023-11-21T05:17:06;7.10;99.90
30473;DHT22;17263;48.160;11.452;2023-11-21T05:19:34;7.00;99.90
30473;DHT22;17263;48.160;11.452;2023-11-21T05:22:01;7.00;99.90
30473;DHT22;17263;48.160;11.452;2023-11-21T05:24:27;7.10;99.90
30473;DHT22;17263;48.160;11.452;2023-11-21T05:26:54;7.20;99.90
30473;DHT22;17263;48.160;11.452;2023-11-21T05:29:20;7.10;99.90
30473;DHT22;17263;48.160;11.452;2023-11-21T05:31:46;7.00;99.90
30473;DHT22;17263;48.160;11.452;2023-11-21T05:34:12;7.00;99.90
30473;DHT22;17263;48.160;11.452;2023-11-21T05:36:38;6.90;99.90
30473;DHT22;17263;48.160;11.452;2023-11-21T05:39:04;7.00;99.90
30473;DHT22;17263;48.160;11.452;2023-11-21T05:41:30;6.90;99.90
30473;DHT22;17263;48.160;11.452;2023-11-21T05:43:56;7.00;99.90
30473;DHT22;17263;48.160;11.452;2023-11-21T05:46:22;7.00;99.90
30473;DHT22;17263;48.160;11.452;2023-11-21T05:48:48;7.00;99.90
30473;DHT22;17263;48.160;11.452;2023-11-21T05:51:14;7.00;99.90
30473;DHT22;17263;48.160;11.452;2023-11-21T05:53:40;6.90;99.90
30473;DHT22;17263;48.160;11.452;2023-11-21T05:56:06;6.90;99.90
30473;DHT22;17263;48.160;11.452;2023-11-21T05:58:33;6.90;99.90
30473;DHT22;17263;48.160;11.452;2023-11-21T06:00:59;6.90;99.90
30473;DHT22;17263;48.160;11.452;2023-11-21T06:03:25;6.80;99.90
30473;DHT22;17263;48.160;11.452;2023-11-21T06:05:51;6.80;99.90
30473;DHT22;17263;48.160;11.452;2023-11-21T06:08:17;6.80;99.90
30473;DHT22;17263;48.160;11.452;2023-11-21T06:10:43;6.80;99.90
30473;DHT22;17263;48.160;11.452;2023-11-21T06:13:09;6.80;99.90
30473;DHT22;17263;48.160;11.452;2023-11-21T06:15:36;6.80;99.90
30473;DHT22;17263;48.160;11.452;2023-11-21T06:18:02;6.80;99.90
30473;DHT22;17263;48.160;11.452;2023-11-21T06:20:28;6.90;99.90
30473;DHT22;17263;48.160;11.452;2023-11-21T06:22:54;6.90;99.90
30473;DHT22;17263;48.160;11.452;2023-11-21T06:25:20;6.90;99.90
30473;DHT22;17263;48.160;11.452;2023-11-21T06:27:48;7.00;99.90
30473;DHT22;17263;48.160;11.452;2023-11-21T06:30:15;7.00;99.90
30473;DHT22;17263;48.160;11.452;2023-11-21T06:32:41;7.00;99.90
30473;DHT22;17263;48.160;11.452;2023-11-21T06:35:08;7.00;99.90
30473;DHT22;17263;48.160;11.452;2023-11-21T06:37:35;7.00;99.90
30473;DHT22;17263;48.160;11.452;2023-11-21T06:40:02;7.00;99.90
30473;DHT22;17263;48.160;11.452;2023-11-21T06:42:30;7.00;99.90
30473;DHT22;17263;48.160;11.452;2023-11-21T06:44:56;7.00;99.90
30473;DHT22;17263;48.160;11.452;2023-11-21T06:47:23;7.00;99.90
30473;DHT22;17263;48.160;11.452;2023-11-21T06:49:53;7.00;99.90
30473;DHT22;17263;48.160;11.452;2023-11-21T06:52:19;7.00;99.90
30473;DHT22;17263;48.160;11.452;2023-11-21T06:54:47;7.00;99.90
30473;DHT22;17263;48.160;11.452;2023-11-21T06:57:13;7.10;99.90
30473;DHT22;17263;48.160;11.452;2023-11-21T06:59:39;7.00;99.90
30473;DHT22;17263;48.160;11.452;2023-11-21T07:02:06;7.00;99.90
30473;DHT22;17263;48.160;11.452;2023-11-21T07:04:38;7.00;99.90
30473;DHT22;17263;48.160;11.452;2023-11-21T07:07:04;6.90;99.90
30473;DHT22;17263;48.160;11.452;2023-11-21T07:09:30;6.90;99.90
30473;DHT22;17263;48.160;11.452;2023-11-21T07:11:57;7.00;99.90
30473;DHT22;17263;48.160;11.452;2023-11-21T07:14:23;7.00;99.90
30473;DHT22;17263;48.160;11.452;2023-11-21T07:16:49;7.00;99.90
30473;DHT22;17263;48.160;11.452;2023-11-21T07:19:15;7.10;99.90
30473;DHT22;17263;48.160;11.452;2023-11-21T07:21:41;7.10;99.90
30473;DHT22;17263;48.160;11.452;2023-11-21T07:24:08;7.10;99.90
30473;DHT22;17263;48.160;11.452;2023-11-21T07:26:35;7.10;99.90
30473;DHT22;17263;48.160;11.452;2023-11-21T07:29:13;7.20;99.90
30473;DHT22;17263;48.160;11.452;2023-11-21T07:31:42;7.20;99.90
30473;DHT22;17263;48.160;11.452;2023-11-21T07:34:08;7.30;99.90
30473;DHT22;17263;48.160;11.452;2023-11-21T07:36:34;7.20;99.90
30473;DHT22;17263;48.160;11.452;2023-11-21T07:39:06;7.30;99.90
30473;DHT22;17263;48.160;11.452;2023-11-21T07:41:37;7.40;99.90
30473;DHT22;17263;48.160;11.452;2023-11-21T07:44:07;7.30;99.90
30473;DHT22;17263;48.160;11.452;2023-11-21T07:46:34;7.40;99.90
30473;DHT22;17263;48.160;11.452;2023-11-21T07:49:09;7.40;99.90
30473;DHT22;17263;48.160;11.452;2023-11-21T07:51:44;7.40;99.90
30473;DHT22;17263;48.160;11.452;2023-11-21T07:54:16;7.40;99.90
30473;DHT22;17263;48.160;11.452;2023-11-21T07:56:42;7.40;99.90
30473;DHT22;17263;48.160;11.452;2023-11-21T07:59:08;7.40;99.90
30473;DHT22;17263;48.160;11.452;2023-11-21T08:01:38;7.50;99.90
30473;DHT22;17263;48.160;11.452;2023-11-21T08:04:08;7.50;99.90
30473;DHT22;17263;48.160;11.452;2023-11-21T08:06:34;7.50;99.90
30473;DHT22;17263;48.160;11.452;2023-11-21T08:09:01;7.50;99.90
30473;DHT22;17263;48.160;11.452;2023-11-21T08:11:27;7.50;99.90
30473;DHT22;17263;48.160;11.452;2023-11-21T08:13:55;7.50;99.90
30473;DHT22;17263;48.160;11.452;2023-11-21T08:16:23;7.50;99.90
30473;DHT22;17263;48.160;11.452;2023-11-21T08:18:49;7.70;99.90
30473;DHT22;17263;48.160;11.452;2023-11-21T08:21:15;7.70;99.90
30473;DHT22;17263;48.160;11.452;2023-11-21T08:23:41;7.80;99.90
30473;DHT22;17263;48.160;11.452;2023-11-21T08:26:07;7.90;99.90
30473;DHT22;17263;48.160;11.452;2023-11-21T08:28:34;8.00;99.90
30473;DHT22;17263;48.160;11.452;2023-11-21T08:31:01;8.10;99.90
30473;DHT22;17263;48.160;11.452;2023-11-21T08:33:27;8.20;99.90
30473;DHT22;17263;48.160;11.452;2023-11-21T08:35:53;8.30;99.90
30473;DHT22;17263;48.160;11.452;2023-11-21T08:38:19;8.40;99.90
30473;DHT22;17263;48.160;11.452;2023-11-21T08:40:45;8.30;99.90
30473;DHT22;17263;48.160;11.452;2023-11-21T08:43:11;8.40;99.90
30473;DHT22;17263;48.160;11.452;2023-11-21T08:45:38;8.40;99.90
30473;DHT22;17263;48.160;11.452;2023-11-21T08:48:04;8.40;99.90
30473;DHT22;17263;48.160;11.452;2023-11-21T08:50:30;8.40;99.90
30473;DHT22;17263;48.160;11.452;2023-11-21T08:52:56;8.50;99.90
30473;DHT22;17263;48.160;11.452;2023-11-21T08:55:22;8.50;99.90
30473;DHT22;17263;48.160;11.452;2023-11-21T08:57:48;8.60;99.90
30473;DHT22;17263;48.160;11.452;2023-11-21T09:00:14;8.80;99.90
30473;DHT22;17263;48.160;11.452;2023-11-21T09:02:41;8.90;99.90
30473;DHT22;17263;48.160;11.452;2023-11-21T09:05:11;8.90;99.90
30473;DHT22;17263;48.160;11.452;2023-11-21T09:07:39;8.90;99.90
30473;DHT22;17263;48.160;11.452;2023-11-21T09:10:06;8.90;99.90
30473;DHT22;17263;48.160;11.452;2023-11-21T09:12:35;8.90;99.90
30473;DHT22;17263;48.160;11.452;2023-11-21T09:15:07;9.00;99.90
30473;DHT22;17263;48.160;11.452;2023-11-21T09:17:34;9.10;99.90
30473;DHT22;17263;48.160;11.452;2023-11-21T09:20:00;9.20;99.90
30473;DHT22;17263;48.160;11.452;2023-11-21T09:22:26;9.30;99.90
30473;DHT22;17263;48.160;11.452;2023-11-21T09:24:52;9.30;99.90
30473;DHT22;17263;48.160;11.452;2023-11-21T09:27:19;9.30;99.90
30473;DHT22;17263;48.160;11.452;2023-11-21T09:29:45;9.30;99.90
30473;DHT22;17263;48.160;11.452;2023-11-21T09:32:14;9.30;99.90
30473;DHT22;17263;48.160;11.452;2023-11-21T09:34:42;9.30;99.90
30473;DHT22;17263;48.160;11.452;2023-11-21T09:37:08;9.30;99.90
30473;DHT22;17263;48.160;11.452;2023-11-21T09:39:35;9.20;99.90
30473;DHT22;17263;48.160;11.452;2023-11-21T09:42:10;9.30;99.90
30473;DHT22;17263;48.160;11.452;2023-11-21T09:45:18;9.30;99.90
30473;DHT22;17263;48.160;11.452;2023-11-21T09:47:47;9.30;99.90
30473;DHT22;17263;48.160;11.452;2023-11-21T09:50:17;9.40;99.90
30473;DHT22;17263;48.160;11.452;2023-11-21T09:52:57;9.40;99.90
30473;DHT22;17263;48.160;11.452;2023-11-21T09:55:26;9.40;99.90
30473;DHT22;17263;48.160;11.452;2023-11-21T09:57:56;9.50;99.90
30473;DHT22;17263;48.160;11.452;2023-11-21T10:00:23;9.50;99.90
30473;DHT22;17263;48.160;11.452;2023-11-21T10:02:53;9.60;99.90
30473;DHT22;17263;48.160;11.452;2023-11-21T10:05:20;9.70;99.90
30473;DHT22;17263;48.160;11.452;2023-11-21T10:07:49;9.70;99.90
30473;DHT22;17263;48.160;11.452;2023-11-21T10:10:18;9.70;99.90
30473;DHT22;17263;48.160;11.452;2023-11-21T10:12:56;9.70;99.90
30473;DHT22;17263;48.160;11.452;2023-11-21T10:15:24;9.70;99.90
30473;DHT22;17263;48.160;11.452;2023-11-21T10:17:52;9.70;99.90
30473;DHT22;17263;48.160;11.452;2023-11-21T10:20:25;9.70;99.90
30473;DHT22;17263;48.160;11.452;2023-11-21T10:22:52;9.50;99.90
30473;DHT22;17263;48.160;11.452;2023-11-21T10:25:18;9.60;99.90
30473;DHT22;17263;48.160;11.452;2023-11-21T10:27:49;9.60;99.90
30473;DHT22;17263;48.160;11.452;2023-11-21T10:30:17;9.70;99.90
30473;DHT22;17263;48.160;11.452;2023-11-21T10:32:44;9.70;99.90
30473;DHT22;17263;48.160;11.452;2023-11-21T10:35:10;9.80;99.90
30473;DHT22;17263;48.160;11.452;2023-11-21T10:37:37;9.90;99.90
30473;DHT22;17263;48.160;11.452;2023-11-21T10:40:07;10.10;99.90
30473;DHT22;17263;48.160;11.452;2023-11-21T10:42:34;10.10;99.90
30473;DHT22;17263;48.160;11.452;2023-11-21T10:45:00;10.30;99.90
30473;DHT22;17263;48.160;11.452;2023-11-21T10:47:26;10.30;99.90
30473;DHT22;17263;48.160;11.452;2023-11-21T10:49:52;10.20;99.90
30473;DHT22;17263;48.160;11.452;2023-11-21T10:52:21;10.20;99.90
30473;DHT22;17263;48.160;11.452;2023-11-21T10:54:48;10.20;99.90
30473;DHT22;17263;48.160;11.452;2023-11-21T10:57:18;10.10;99.90
30473;DHT22;17263;48.160;11.452;2023-11-21T10:59:47;10.10;99.90
30473;DHT22;17263;48.160;11.452;2023-11-21T11:02:26;10.20;99.90
30473;DHT22;17263;48.160;11.452;2023-11-21T11:04:54;10.20;99.90
30473;DHT22;17263;48.160;11.452;2023-11-21T11:07:27;10.30;99.90
30473;DHT22;17263;48.160;11.452;2023-11-21T11:09:54;10.40;99.90
30473;DHT22;17263;48.160;11.452;2023-11-21T11:12:21;10.40;99.90
30473;DHT22;17263;48.160;11.452;2023-11-21T11:14:48;10.40;99.90
30473;DHT22;17263;48.160;11.452;2023-11-21T11:17:14;10.50;99.90
30473;DHT22;17263;48.160;11.452;2023-11-21T11:19:40;10.50;99.90
30473;DHT22;17263;48.160;11.452;2023-11-21T11:22:34;10.50;99.90
30473;DHT22;17263;48.160;11.452;2023-11-21T11:25:25;10.60;99.90
30473;DHT22;17263;48.160;11.452;2023-11-21T11:28:08;10.60;99.90
30473;DHT22;17263;48.160;11.452;2023-11-21T11:33:41;10.60;99.90
30473;DHT22;17263;48.160;11.452;2023-11-21T11:36:25;10.50;99.90
30473;DHT22;17263;48.160;11.452;2023-11-21T11:38:52;10.60;99.90
30473;DHT22;17263;48.160;11.452;2023-11-21T11:41:26;10.60;99.90
30473;DHT22;17263;48.160;11.452;2023-11-21T11:43:53;10.60;99.90
30473;DHT22;17263;48.160;11.452;2023-11-21T11:46:19;10.50;99.90
30473;DHT22;17263;48.160;11.452;2023-11-21T11:49:02;10.50;99.90
30473;DHT22;17263;48.160;11.452;2023-11-21T11:51:29;10.40;99.90
30473;DHT22;17263;48.160;11.452;2023-11-21T11:53:57;10.40;99.90
30473;DHT22;17263;48.160;11.452;2023-11-21T11:56:29;10.40;99.90
30473;DHT22;17263;48.160;11.452;2023-11-21T11:58:59;10.40;99.90
30473;DHT22;17263;48.160;11.452;2023-11-21T12:01:29;10.40;99.90
30473;DHT22;17263;48.160;11.452;2023-11-21T12:07:04;10.50;99.90
30473;DHT22;17263;48.160;11.452;2023-11-21T12:09:32;10.60;99.90
30473;DHT22;17263;48.160;11.452;2023-11-21T12:11:58;10.60;99.90
30473;DHT22;17263;48.160;11.452;2023-11-21T12:14:24;10.70;99.90
30473;DHT22;17263;48.160;11.452;2023-11-21T12:16:51;10.80;99.90
30473;DHT22;17263;48.160;11.452;2023-11-21T12:19:17;10.80;99.90
30473;DHT22;17263;48.160;11.452;2023-11-21T12:21:44;10.70;99.90
30473;DHT22;17263;48.160;11.452;2023-11-21T12:24:10;10.70;99.90
30473;DHT22;17263;48.160;11.452;2023-11-21T12:26:42;10.60;99.90
30473;DHT22;17263;48.160;11.452;2023-11-21T12:29:09;10.50;99.90
30473;DHT22;17263;48.160;11.452;2023-11-21T12:31:36;10.50;99.90
30473;DHT22;17263;48.160;11.452;2023-11-21T12:34:02;10.40;99.90
30473;DHT22;17263;48.160;11.452;2023-11-21T12:36:29;10.20;99.90
30473;DHT22;17263;48.160;11.452;2023-11-21T12:38:56;10.20;99.90
30473;DHT22;17263;48.160;11.452;2023-11-21T12:41:22;10.10;99.90
30473;DHT22;17263;48.160;11.452;2023-11-21T12:43:48;10.10;99.90
30473;DHT22;17263;48.160;11.452;2023-11-21T12:46:15;10.10;99.90
30473;DHT22;17263;48.160;11.452;2023-11-21T12:48:41;10.00;99.90
30473;DHT22;17263;48.160;11.452;2023-11-21T12:51:12;9.90;99.90
30473;DHT22;17263;48.160;11.452;2023-11-21T12:53:40;9.90;99.90
30473;DHT22;17263;48.160;11.452;2023-11-21T12:56:16;9.90;99.90
30473;DHT22;17263;48.160;11.452;2023-11-21T12:58:45;9.90;99.90
30473;DHT22;17263;48.160;11.452;2023-11-21T13:01:13;10.00;99.90
30473;DHT22;17263;48.160;11.452;2023-11-21T13:03:46;10.10;99.90
30473;DHT22;17263;48.160;11.452;2023-11-21T13:06:15;10.10;99.90
30473;DHT22;17263;48.160;11.452;2023-11-21T13:08:44;10.10;99.90
30473;DHT22;17263;48.160;11.452;2023-11-21T13:11:11;10.20;99.90
30473;DHT22;17263;48.160;11.452;2023-11-21T13:13:41;10.20;99.90
30473;DHT22;17263;48.160;11.452;2023-11-21T13:16:08;10.30;99.90
30473;DHT22;17263;48.160;11.452;2023-11-21T13:18:35;10.20;99.90
30473;DHT22;17263;48.160;11.452;2023-11-21T13:21:06;10.30;99.90
30473;DHT22;17263;48.160;11.452;2023-11-21T13:23:40;10.30;99.90
30473;DHT22;17263;48.160;11.452;2023-11-21T13:26:07;10.30;99.90
30473;DHT22;17263;48.160;11.452;2023-11-21T13:28:35;10.30;99.90
30473;DHT22;17263;48.160;11.452;2023-11-21T13:31:04;10.30;99.90
30473;DHT22;17263;48.160;11.452;2023-11-21T13:33:35;10.20;99.90
30473;DHT22;17263;48.160;11.452;2023-11-21T13:36:05;10.20;99.90
30473;DHT22;17263;48.160;11.452;2023-11-21T13:38:33;10.20;99.90
30473;DHT22;17263;48.160;11.452;2023-11-21T13:41:01;10.20;99.90
30473;DHT22;17263;48.160;11.452;2023-11-21T13:43:27;10.20;99.90
30473;DHT22;17263;48.160;11.452;2023-11-21T13:45:54;10.20;99.90
30473;DHT22;17263;48.160;11.452;2023-11-21T13:48:34;10.00;99.90
30473;DHT22;17263;48.160;11.452;2023-11-21T13:51:14;9.80;99.90
30473;DHT22;17263;48.160;11.452;2023-11-21T13:53:47;9.70;99.90
30473;DHT22;17263;48.160;11.452;2023-11-21T13:56:13;9.70;99.90
30473;DHT22;17263;48.160;11.452;2023-11-21T13:58:44;9.60;99.90
30473;DHT22;17263;48.160;11.452;2023-11-21T14:01:23;9.60;99.90
30473;DHT22;17263;48.160;11.452;2023-11-21T14:03:57;9.40;99.90
30473;DHT22;17263;48.160;11.452;2023-11-21T14:06:28;9.30;99.90
30473;DHT22;17263;48.160;11.452;2023-11-21T14:09:00;9.20;99.90
30473;DHT22;17263;48.160;11.452;2023-11-21T14:11:31;9.10;99.90
30473;DHT22;17263;48.160;11.452;2023-11-21T14:13:57;8.90;99.90
30473;DHT22;17263;48.160;11.452;2023-11-21T14:16:25;8.70;99.90
30473;DHT22;17263;48.160;11.452;2023-11-21T14:18:51;8.60;99.90
30473;DHT22;17263;48.160;11.452;2023-11-21T14:21:27;8.40;99.90
30473;DHT22;17263;48.160;11.452;2023-11-21T14:23:53;8.30;99.90
30473;DHT22;17263;48.160;11.452;2023-11-21T14:26:21;8.20;99.90
30473;DHT22;17263;48.160;11.452;2023-11-21T14:28:50;8.10;99.90
30473;DHT22;17263;48.160;11.452;2023-11-21T14:31:17;8.00;99.90
30473;DHT22;17263;48.160;11.452;2023-11-21T14:33:46;7.90;99.90
30473;DHT22;17263;48.160;11.452;2023-11-21T14:36:12;7.90;99.90
30473;DHT22;17263;48.160;11.452;2023-11-21T14:38:38;7.90;99.90
30473;DHT22;17263;48.160;11.452;2023-11-21T14:41:06;7.90;99.90
30473;DHT22;17263;48.160;11.452;2023-11-21T14:43:37;7.90;99.90
30473;DHT22;17263;48.160;11.452;2023-11-21T14:46:04;7.90;99.90
30473;DHT22;17263;48.160;11.452;2023-11-21T14:48:34;7.90;99.90
30473;DHT22;17263;48.160;11.452;2023-11-21T14:51:10;7.90;99.90
30473;DHT22;17263;48.160;11.452;2023-11-21T14:53:57;7.90;99.90
30473;DHT22;17263;48.160;11.452;2023-11-21T14:56:30;7.90;99.90
30473;DHT22;17263;48.160;11.452;2023-11-21T14:58:58;7.90;99.90
30473;DHT22;17263;48.160;11.452;2023-11-21T15:01:31;7.90;99.90
30473;DHT22;17263;48.160;11.452;2023-11-21T15:04:16;7.90;99.90
30473;DHT22;17263;48.160;11.452;2023-11-21T15:06:54;7.90;99.90
30473;DHT22;17263;48.160;11.452;2023-11-21T15:09:23;7.90;99.90
30473;DHT22;17263;48.160;11.452;2023-11-21T15:12:01;7.90;99.90
30473;DHT22;17263;48.160;11.452;2023-11-21T15:14:50;7.90;99.90
30473;DHT22;17263;48.160;11.452;2023-11-21T15:17:19;7.90;99.90
30473;DHT22;17263;48.160;11.452;2023-11-21T15:19:56;7.80;99.90
30473;DHT22;17263;48.160;11.452;2023-11-21T15:22:23;7.80;99.90
30473;DHT22;17263;48.160;11.452;2023-11-21T15:24:49;7.80;99.90
30473;DHT22;17263;48.160;11.452;2023-11-21T15:27:16;7.70;99.90
30473;DHT22;17263;48.160;11.452;2023-11-21T15:29:43;7.70;99.90
30473;DHT22;17263;48.160;11.452;2023-11-21T15:32:09;7.70;99.90
30473;DHT22;17263;48.160;11.452;2023-11-21T15:34:36;7.70;99.90
30473;DHT22;17263;48.160;11.452;2023-11-21T15:37:04;7.70;99.90
30473;DHT22;17263;48.160;11.452;2023-11-21T15:39:31;7.70;99.90